createdAt,value
2017-08-14T00:02:24.261Z,14.00
2017-08-14T00:04:51.791Z,14.00
2017-08-14T00:07:19.329Z,14.00
2017-08-14T00:09:46.838Z,14.00
2017-08-14T00:12:14.373Z,14.00
2017-08-14T00:14:41.888Z,14.00
2017-08-14T00:17:10.202Z,13.90
2017-08-14T00:19:37.730Z,13.90
2017-08-14T00:22:06.029Z,13.90
2017-08-14T00:24:33.550Z,13.90
2017-08-14T00:27:01.099Z,13.80
2017-08-14T00:29:28.620Z,13.80
2017-08-14T00:31:56.163Z,13.80
2017-08-14T00:34:23.721Z,13.80
2017-08-14T00:36:51.253Z,13.90
2017-08-14T00:39:19.572Z,14.00
2017-08-14T00:41:47.084Z,14.00
2017-08-14T00:44:15.396Z,14.00
2017-08-14T00:46:42.910Z,14.00
2017-08-14T00:49:10.447Z,14.00
2017-08-14T00:51:37.964Z,14.00
2017-08-14T00:54:05.505Z,14.10
2017-08-14T00:56:33.790Z,14.00
2017-08-14T00:59:01.320Z,14.00
2017-08-14T01:01:29.641Z,14.10
2017-08-14T01:03:57.165Z,14.00
2017-08-14T01:06:25.487Z,14.00
2017-08-14T01:08:53.107Z,14.00
2017-08-14T01:11:21.403Z,14.00
2017-08-14T01:13:48.922Z,14.00
2017-08-14T01:16:16.479Z,14.10
2017-08-14T01:18:44.028Z,14.00
2017-08-14T01:21:11.573Z,14.00
2017-08-14T01:23:39.121Z,14.00
2017-08-14T01:26:06.668Z,13.90
2017-08-14T01:28:34.234Z,13.90
2017-08-14T01:31:01.757Z,13.80
2017-08-14T01:33:30.065Z,13.80
2017-08-14T01:35:57.592Z,13.70
2017-08-14T01:38:25.917Z,13.80
2017-08-14T01:40:53.440Z,13.70
2017-08-14T01:43:20.980Z,13.80
2017-08-14T01:45:48.509Z,13.80
2017-08-14T01:48:16.097Z,13.70
2017-08-14T01:50:44.861Z,13.70
2017-08-14T01:53:12.385Z,13.60
2017-08-14T01:55:39.929Z,13.50
2017-08-14T01:58:07.805Z,13.40
2017-08-14T02:00:35.357Z,13.40
2017-08-14T02:03:02.884Z,13.30
2017-08-14T02:05:30.440Z,13.30
2017-08-14T02:07:57.968Z,13.40
2017-08-14T02:10:25.509Z,13.40
2017-08-14T02:12:53.036Z,13.30
2017-08-14T02:15:21.341Z,13.30
2017-08-14T02:17:48.867Z,13.30
2017-08-14T02:20:16.423Z,13.30
2017-08-14T02:22:44.713Z,13.40
2017-08-14T02:25:12.237Z,13.40
2017-08-14T02:27:39.778Z,13.40
2017-08-14T02:30:07.302Z,13.30
2017-08-14T02:32:34.844Z,13.20
2017-08-14T02:35:03.126Z,13.10
2017-08-14T02:37:30.670Z,13.10
2017-08-14T02:39:58.960Z,12.90
2017-08-14T02:42:27.316Z,12.90
2017-08-14T02:44:55.608Z,12.80
2017-08-14T02:47:23.920Z,12.90
2017-08-14T02:49:51.437Z,12.90
2017-08-14T02:52:19.748Z,13.10
2017-08-14T02:54:47.273Z,13.10
2017-08-14T02:57:15.594Z,13.10
2017-08-14T02:59:43.112Z,13.10
2017-08-14T03:02:11.437Z,13.00
2017-08-14T03:04:38.973Z,13.00
2017-08-14T03:07:06.508Z,13.00
2017-08-14T03:09:34.822Z,12.80
2017-08-14T03:12:02.345Z,12.80
2017-08-14T03:14:30.653Z,12.80
2017-08-14T03:16:58.169Z,12.80
2017-08-14T03:19:25.709Z,12.80
2017-08-14T03:21:53.250Z,12.80
2017-08-14T03:24:20.803Z,12.70
2017-08-14T03:26:48.325Z,12.80
2017-08-14T03:29:15.862Z,12.80
2017-08-14T03:31:44.150Z,12.90
2017-08-14T03:34:12.468Z,12.90
2017-08-14T03:36:39.983Z,12.90
2017-08-14T03:39:08.302Z,13.00
2017-08-14T03:41:35.828Z,13.00
2017-08-14T03:44:04.225Z,13.10
2017-08-14T03:46:31.740Z,13.20
2017-08-14T03:48:59.259Z,13.10
2017-08-14T03:51:26.796Z,13.10
2017-08-14T03:53:54.329Z,13.10
2017-08-14T03:56:21.881Z,13.10
2017-08-14T03:58:49.411Z,13.10
2017-08-14T04:01:16.957Z,13.10
2017-08-14T04:03:44.481Z,13.10
2017-08-14T04:06:12.045Z,13.10
2017-08-14T04:08:39.565Z,13.00
2017-08-14T04:11:07.100Z,13.10
2017-08-14T04:13:34.625Z,13.10
2017-08-14T04:16:02.180Z,13.20
2017-08-14T04:18:29.712Z,13.20
2017-08-14T04:20:57.288Z,13.30
2017-08-14T04:23:25.304Z,13.30
2017-08-14T04:25:52.829Z,13.30
2017-08-14T04:28:20.379Z,13.40
2017-08-14T04:30:47.899Z,13.50
2017-08-14T04:33:15.462Z,13.60
2017-08-14T04:35:42.973Z,13.70
2017-08-14T04:38:10.515Z,13.80
2017-08-14T04:40:38.034Z,13.90
2017-08-14T04:43:05.578Z,13.90
2017-08-14T04:45:33.094Z,13.90
2017-08-14T04:48:00.633Z,13.90
2017-08-14T04:50:28.161Z,14.00
2017-08-14T04:52:55.704Z,14.10
2017-08-14T04:55:23.226Z,14.20
2017-08-14T04:57:50.743Z,14.30
2017-08-14T05:00:18.280Z,14.30
2017-08-14T05:02:45.797Z,14.30
2017-08-14T05:05:13.333Z,14.40
2017-08-14T05:07:40.859Z,14.30
2017-08-14T05:10:08.411Z,14.50
2017-08-14T05:12:35.921Z,14.90
2017-08-14T05:15:03.449Z,15.30
2017-08-14T05:17:30.961Z,15.60
2017-08-14T05:19:58.497Z,15.60
2017-08-14T05:22:26.022Z,15.30
2017-08-14T05:24:53.561Z,15.50
2017-08-14T05:27:21.072Z,18.90
2017-08-14T05:29:49.373Z,25.30
2017-08-14T05:32:16.886Z,25.30
2017-08-14T05:34:44.428Z,26.90
2017-08-14T05:37:11.940Z,27.90
2017-08-14T05:39:40.254Z,28.70
2017-08-14T05:42:08.618Z,28.70
2017-08-14T05:44:36.135Z,28.70
2017-08-14T05:47:04.450Z,29.80
2017-08-14T05:49:31.965Z,29.70
2017-08-14T05:51:59.501Z,31.00
2017-08-14T05:54:27.010Z,32.40
2017-08-14T05:56:55.322Z,33.20
2017-08-14T05:59:22.842Z,33.10
2017-08-14T06:01:51.148Z,33.20
2017-08-14T06:04:18.652Z,33.20
2017-08-14T06:06:46.350Z,33.20
2017-08-14T06:09:14.717Z,32.70
2017-08-14T06:11:43.008Z,32.50
2017-08-14T06:14:11.459Z,32.40
2017-08-14T06:16:38.989Z,32.30
2017-08-14T06:19:06.513Z,32.80
2017-08-14T06:21:34.045Z,32.80
2017-08-14T06:24:02.323Z,33.10
2017-08-14T06:26:29.836Z,33.10
2017-08-14T06:28:57.376Z,34.40
2017-08-14T06:31:24.908Z,33.90
2017-08-14T06:33:52.440Z,32.60
2017-08-14T06:36:20.750Z,33.70
2017-08-14T06:38:48.303Z,33.60
2017-08-14T06:41:15.804Z,34.20
2017-08-14T06:43:43.339Z,33.60
2017-08-14T06:46:10.857Z,32.70
2017-08-14T06:48:38.401Z,32.90
2017-08-14T06:51:05.910Z,31.70
2017-08-14T06:53:33.452Z,31.90
2017-08-14T06:56:00.979Z,31.00
2017-08-14T06:58:28.521Z,29.50
2017-08-14T07:00:56.046Z,28.90
2017-08-14T07:03:23.607Z,27.70
2017-08-14T07:05:51.117Z,25.80
2017-08-14T07:08:18.644Z,24.90
2017-08-14T07:10:46.182Z,24.60
2017-08-14T07:13:13.707Z,24.50
2017-08-14T07:15:42.013Z,25.00
2017-08-14T07:18:09.531Z,25.00
2017-08-14T07:20:37.078Z,24.50
2017-08-14T07:23:04.603Z,24.10
2017-08-14T07:25:32.133Z,23.90
2017-08-14T07:27:59.653Z,23.90
2017-08-14T07:30:27.192Z,23.70
2017-08-14T07:32:54.706Z,23.40
2017-08-14T07:35:22.263Z,23.20
2017-08-14T07:37:50.548Z,23.00
2017-08-14T07:40:18.085Z,23.00
2017-08-14T07:42:46.361Z,22.90
2017-08-14T07:45:14.668Z,23.10
2017-08-14T07:47:42.184Z,23.10
2017-08-14T07:50:09.738Z,23.20
2017-08-14T07:52:37.299Z,23.50
2017-08-14T07:55:04.814Z,23.50
2017-08-14T07:57:32.352Z,23.10
2017-08-14T07:59:59.861Z,22.80
2017-08-14T08:02:27.408Z,23.10
2017-08-14T08:04:54.926Z,23.20
2017-08-14T08:07:22.461Z,22.70
2017-08-14T08:09:49.985Z,23.00
2017-08-14T08:12:17.531Z,23.20
2017-08-14T08:14:45.072Z,23.10
2017-08-14T08:17:12.618Z,22.90
2017-08-14T08:19:40.129Z,23.20
2017-08-14T08:22:07.642Z,23.40
2017-08-14T08:24:35.189Z,23.30
2017-08-14T08:27:03.480Z,24.20
2017-08-14T08:29:31.056Z,24.20
2017-08-14T08:31:58.569Z,24.80
2017-08-14T08:34:26.875Z,25.60
2017-08-14T08:36:55.387Z,25.60
2017-08-14T08:39:22.926Z,25.80
2017-08-14T08:41:50.448Z,26.50
2017-08-14T08:44:18.758Z,26.40
2017-08-14T08:46:46.273Z,26.40
2017-08-14T08:49:13.818Z,26.90
2017-08-14T08:51:41.333Z,27.20
2017-08-14T08:54:08.876Z,27.40
2017-08-14T08:56:37.163Z,27.50
2017-08-14T08:59:04.681Z,27.50
2017-08-14T09:01:32.207Z,27.10
2017-08-14T09:03:59.718Z,26.40
2017-08-14T09:06:27.258Z,26.40
2017-08-14T09:11:48.049Z,25.60
2017-08-14T09:14:16.359Z,26.90
2017-08-14T09:16:43.918Z,26.90
2017-08-14T09:19:11.490Z,27.60
2017-08-14T09:21:39.051Z,27.40
2017-08-14T09:24:06.605Z,27.20
2017-08-14T09:26:35.036Z,27.80
2017-08-14T09:29:02.621Z,27.80
2017-08-14T09:31:30.490Z,27.30
2017-08-14T09:33:58.031Z,27.10
2017-08-14T09:36:25.591Z,27.40
2017-08-14T09:38:53.133Z,27.00
2017-08-14T09:41:20.781Z,27.30
2017-08-14T09:43:48.330Z,28.00
2017-08-14T09:46:15.917Z,28.30
2017-08-14T09:48:43.450Z,27.60
2017-08-14T09:51:11.345Z,28.20
2017-08-14T09:53:38.905Z,28.50
2017-08-14T09:56:07.229Z,29.20
2017-08-14T09:58:34.980Z,29.20
2017-08-14T10:01:02.962Z,29.30
2017-08-14T10:03:30.535Z,29.20
2017-08-14T10:05:58.080Z,28.20
2017-08-14T10:08:25.638Z,28.60
2017-08-14T10:10:53.952Z,28.90
2017-08-14T10:13:21.492Z,28.90
2017-08-14T10:15:49.837Z,29.30
2017-08-14T10:18:17.379Z,29.30
2017-08-14T10:20:44.934Z,28.20
2017-08-14T10:23:12.472Z,28.50
2017-08-14T10:25:40.036Z,29.20
2017-08-14T10:28:08.340Z,30.20
2017-08-14T10:30:35.895Z,30.20
2017-08-14T10:33:03.474Z,29.50
2017-08-14T10:35:31.038Z,28.80
2017-08-14T10:37:58.610Z,28.30
2017-08-14T10:40:26.157Z,28.30
2017-08-14T10:42:53.741Z,28.80
2017-08-14T10:45:21.292Z,29.30
2017-08-14T10:47:48.895Z,29.50
2017-08-14T10:50:16.479Z,29.20
2017-08-14T10:52:44.814Z,29.70
2017-08-14T10:55:12.352Z,29.70
2017-08-14T10:57:40.718Z,29.70
2017-08-14T11:00:09.042Z,29.90
2017-08-14T11:02:36.593Z,29.90
2017-08-14T11:05:04.126Z,30.50
2017-08-14T11:07:32.449Z,29.80
2017-08-14T11:09:59.986Z,29.80
2017-08-14T11:12:28.322Z,30.60
2017-08-14T11:14:55.854Z,30.60
2017-08-14T11:17:23.424Z,30.30
2017-08-14T11:19:50.964Z,29.90
2017-08-14T11:22:19.282Z,29.70
2017-08-14T11:24:48.016Z,29.60
2017-08-14T11:27:15.685Z,30.20
2017-08-14T11:29:44.001Z,30.80
2017-08-14T11:32:11.555Z,30.80
2017-08-14T11:34:39.876Z,31.00
2017-08-14T11:37:07.410Z,31.00
2017-08-14T11:39:34.963Z,30.50
2017-08-14T11:42:03.251Z,30.20
2017-08-14T11:44:30.837Z,30.10
2017-08-14T11:46:58.370Z,29.10
2017-08-14T11:49:26.696Z,27.70
2017-08-14T11:51:54.222Z,27.70
2017-08-14T11:54:22.553Z,29.30
2017-08-14T11:56:50.103Z,29.30
2017-08-14T11:59:17.694Z,29.50
2017-08-14T12:01:45.224Z,29.30
2017-08-14T12:04:13.496Z,29.40
2017-08-14T12:06:41.056Z,30.00
2017-08-14T12:09:08.587Z,29.90
2017-08-14T12:11:36.139Z,29.00
2017-08-14T12:14:03.680Z,28.70
2017-08-14T12:16:31.239Z,28.40
2017-08-14T12:18:58.774Z,29.00
2017-08-14T12:21:27.149Z,30.30
2017-08-14T12:23:54.681Z,30.30
2017-08-14T12:26:22.249Z,30.40
2017-08-14T12:28:49.806Z,30.10
2017-08-14T12:31:17.368Z,29.80
2017-08-14T12:33:44.899Z,29.10
2017-08-14T12:36:12.485Z,28.30
2017-08-14T12:38:40.027Z,28.10
2017-08-14T12:41:07.581Z,28.80
2017-08-14T12:43:35.122Z,29.30
2017-08-14T12:46:03.419Z,28.80
2017-08-14T12:48:30.987Z,28.80
2017-08-14T12:50:59.467Z,29.90
2017-08-14T12:53:29.543Z,30.30
2017-08-14T12:55:57.907Z,30.80
2017-08-14T12:58:25.611Z,30.80
2017-08-14T13:00:53.664Z,30.20
2017-08-14T13:03:22.071Z,30.20
2017-08-14T13:05:50.424Z,30.20
2017-08-14T13:08:18.365Z,30.80
2017-08-14T13:10:45.963Z,31.00
2017-08-14T13:13:14.970Z,29.90
2017-08-14T13:15:42.591Z,29.30
2017-08-14T13:18:10.202Z,29.20
2017-08-14T13:20:37.825Z,29.30
2017-08-14T13:23:06.353Z,29.60
2017-08-14T13:25:35.826Z,29.60
2017-08-14T13:28:03.482Z,29.50
2017-08-14T13:30:31.937Z,29.60
2017-08-14T13:33:00.681Z,30.40
2017-08-14T13:35:28.330Z,30.40
2017-08-14T13:37:55.913Z,30.50
2017-08-14T13:40:23.514Z,30.50
2017-08-14T13:42:51.082Z,31.00
2017-08-14T13:45:18.706Z,30.80
2017-08-14T13:47:46.600Z,30.90
2017-08-14T13:50:14.175Z,30.80
2017-08-14T13:52:41.713Z,31.00
2017-08-14T13:55:11.082Z,30.50
2017-08-14T13:57:40.420Z,30.40
2017-08-14T14:00:07.978Z,30.40
2017-08-14T14:02:35.544Z,30.60
2017-08-14T14:05:03.084Z,30.70
2017-08-14T14:07:31.416Z,31.40
2017-08-14T14:09:58.967Z,31.40
2017-08-14T14:12:26.523Z,30.90
2017-08-14T14:14:54.059Z,30.70
2017-08-14T14:17:21.615Z,30.80
2017-08-14T14:19:49.160Z,30.70
2017-08-14T14:22:16.752Z,30.50
2017-08-14T14:24:45.040Z,29.90
2017-08-14T14:27:12.604Z,29.80
2017-08-14T14:29:40.908Z,30.20
2017-08-14T14:32:08.462Z,30.20
2017-08-14T14:34:36.026Z,30.50
2017-08-14T14:37:04.379Z,29.70
2017-08-14T14:39:31.933Z,29.70
2017-08-14T14:41:59.512Z,29.60
2017-08-14T14:44:27.060Z,29.40
2017-08-14T14:46:54.618Z,29.00
2017-08-14T14:49:22.183Z,29.00
2017-08-14T14:51:49.728Z,29.10
2017-08-14T14:54:17.294Z,28.90
2017-08-14T14:56:44.818Z,29.20
2017-08-14T14:59:13.166Z,29.50
2017-08-14T15:01:41.265Z,29.50
2017-08-14T15:04:08.838Z,29.30
2017-08-14T15:06:37.150Z,28.80
2017-08-14T15:09:04.705Z,28.80
2017-08-14T15:11:32.249Z,28.80
2017-08-14T15:14:00.597Z,28.70
2017-08-14T15:16:28.145Z,28.70
2017-08-14T15:18:55.684Z,28.90
2017-08-14T15:21:23.284Z,28.70
2017-08-14T15:23:50.815Z,28.30
2017-08-14T15:26:18.378Z,28.30
2017-08-14T15:28:45.923Z,28.10
2017-08-14T15:31:14.248Z,28.40
2017-08-14T15:33:41.779Z,28.40
2017-08-14T15:36:09.332Z,28.80
2017-08-14T15:38:37.645Z,29.40
2017-08-14T15:41:05.233Z,29.40
2017-08-14T15:43:32.767Z,29.20
2017-08-14T15:46:00.326Z,28.80
2017-08-14T15:48:27.885Z,28.20
2017-08-14T15:50:56.207Z,27.80
2017-08-14T15:59:11.585Z,28.10
2017-08-14T16:01:39.137Z,28.10
2017-08-14T16:04:06.709Z,28.20
2017-08-14T16:06:34.273Z,28.40
2017-08-14T16:09:01.832Z,28.60
2017-08-14T16:11:29.404Z,28.50
2017-08-14T16:13:56.957Z,28.20
2017-08-14T16:16:24.502Z,28.10
2017-08-14T16:18:52.101Z,27.90
2017-08-14T16:21:19.668Z,27.80
2017-08-14T16:23:47.227Z,27.80
2017-08-14T16:26:14.789Z,27.70
2017-08-14T16:28:42.409Z,27.40
2017-08-14T16:31:09.964Z,27.40
2017-08-14T16:33:37.522Z,27.30
2017-08-14T16:36:05.089Z,27.30
2017-08-14T16:38:32.680Z,27.10
2017-08-14T16:41:00.208Z,27.10
2017-08-14T16:43:27.787Z,27.00
2017-08-14T16:45:55.301Z,26.90
2017-08-14T16:48:22.873Z,27.00
2017-08-14T16:50:50.413Z,26.90
2017-08-14T16:53:18.740Z,26.50
2017-08-14T16:55:46.287Z,26.40
2017-08-14T16:58:13.845Z,26.30
2017-08-14T17:00:41.413Z,26.20
2017-08-14T17:03:08.942Z,26.10
2017-08-14T17:05:37.262Z,26.10
2017-08-14T17:08:04.834Z,26.10
2017-08-14T17:10:32.412Z,26.10
2017-08-14T17:12:59.963Z,26.00
2017-08-14T17:15:27.786Z,25.90
2017-08-14T17:17:55.344Z,25.90
2017-08-14T17:20:22.888Z,25.90
2017-08-14T17:22:50.564Z,25.80
2017-08-14T17:25:18.231Z,25.70
2017-08-14T17:27:46.133Z,25.70
2017-08-14T17:30:13.708Z,25.60
2017-08-14T17:32:42.030Z,25.40
2017-08-14T17:35:09.576Z,25.40
2017-08-14T17:37:37.133Z,25.30
2017-08-14T17:40:04.669Z,25.30
2017-08-14T17:42:32.217Z,25.20
2017-08-14T17:45:00.546Z,24.90
2017-08-14T17:47:28.093Z,24.90
2017-08-14T17:49:55.623Z,24.80
2017-08-14T17:52:23.170Z,24.60
2017-08-14T17:54:50.738Z,24.50
2017-08-14T17:57:18.297Z,24.40
2017-08-14T17:59:45.855Z,24.20
2017-08-14T18:02:13.422Z,24.10
2017-08-14T18:04:40.947Z,24.00
2017-08-14T18:07:09.274Z,23.70
2017-08-14T18:09:36.850Z,23.70
2017-08-14T18:12:04.832Z,23.50
2017-08-14T18:14:32.414Z,23.40
2017-08-14T18:16:59.985Z,23.30
2017-08-14T18:19:28.685Z,23.10
2017-08-14T18:21:56.247Z,23.00
2017-08-14T18:24:23.800Z,22.90
2017-08-14T18:26:51.333Z,22.80
2017-08-14T18:29:18.887Z,22.60
2017-08-14T18:31:46.435Z,22.50
2017-08-14T18:34:13.994Z,22.40
2017-08-14T18:36:41.553Z,22.20
2017-08-14T18:39:09.079Z,22.10
2017-08-14T18:41:36.632Z,22.00
2017-08-14T18:44:06.079Z,21.80
2017-08-14T18:46:34.408Z,21.60
2017-08-14T18:49:03.548Z,21.50
2017-08-14T18:51:31.887Z,21.30
2017-08-14T18:53:59.411Z,21.30
2017-08-14T18:56:27.771Z,21.10
2017-08-14T18:58:56.154Z,20.90
2017-08-14T19:01:24.494Z,20.80
2017-08-14T19:03:52.070Z,20.80
2017-08-14T19:06:19.626Z,20.80
2017-08-14T19:08:49.026Z,20.70
2017-08-14T19:11:14.802Z,20.60
2017-08-14T19:13:42.673Z,20.50
2017-08-14T19:16:10.229Z,20.50
2017-08-14T19:18:37.755Z,20.40
2017-08-14T19:21:05.341Z,20.20
2017-08-14T19:23:32.898Z,20.10
2017-08-14T19:26:00.458Z,19.90
2017-08-14T19:28:28.015Z,19.80
2017-08-14T19:30:55.573Z,19.70
2017-08-14T19:33:23.204Z,19.70
2017-08-14T19:35:51.541Z,19.50
2017-08-14T19:38:19.070Z,19.50
2017-08-14T19:40:46.604Z,19.50
2017-08-14T19:43:14.175Z,19.50
2017-08-14T19:45:42.481Z,19.30
2017-08-14T19:48:10.061Z,19.30
2017-08-14T19:50:37.602Z,19.30
2017-08-14T19:53:05.953Z,19.20
2017-08-14T19:55:33.585Z,19.20
2017-08-14T19:58:01.148Z,19.20
2017-08-14T20:00:29.820Z,19.10
2017-08-14T20:02:57.356Z,19.00
2017-08-14T20:05:25.678Z,18.70
2017-08-14T20:07:53.324Z,18.70
2017-08-14T20:10:21.642Z,18.50
2017-08-14T20:12:49.191Z,18.50
2017-08-14T20:15:16.749Z,18.40
2017-08-14T20:17:44.288Z,18.30
2017-08-14T20:20:12.718Z,18.20
2017-08-14T20:22:40.267Z,18.10
2017-08-14T20:25:07.810Z,18.10
2017-08-14T20:27:35.354Z,18.00
2017-08-14T20:30:03.687Z,17.80
2017-08-14T20:32:31.231Z,17.80
2017-08-14T20:34:59.398Z,17.80
2017-08-14T20:37:27.934Z,17.60
2017-08-14T20:39:55.482Z,17.60
2017-08-14T20:42:23.154Z,17.60
2017-08-14T20:44:50.737Z,17.50
2017-08-14T20:47:20.204Z,17.50
2017-08-14T20:49:47.795Z,17.40
2017-08-14T20:52:15.321Z,17.40
2017-08-14T20:54:42.875Z,17.30
2017-08-14T20:57:10.430Z,17.20
2017-08-14T20:59:38.276Z,17.20
2017-08-14T21:02:05.828Z,17.00
2017-08-14T21:04:33.353Z,16.90
2017-08-14T21:07:01.696Z,16.80
2017-08-14T21:09:29.242Z,16.80
2017-08-14T21:11:56.798Z,16.70
2017-08-14T21:14:24.333Z,16.70
2017-08-14T21:16:52.148Z,16.60
2017-08-14T21:19:19.687Z,16.50
2017-08-14T21:21:47.245Z,16.50
2017-08-14T21:24:14.810Z,16.50
2017-08-14T21:26:42.359Z,16.50
2017-08-14T21:29:11.008Z,16.50
2017-08-14T21:31:38.564Z,16.40
2017-08-14T21:34:06.117Z,16.50
2017-08-14T21:36:34.537Z,16.40
2017-08-14T21:39:02.388Z,16.40
2017-08-14T21:41:29.959Z,16.30
2017-08-14T21:43:57.494Z,16.30
2017-08-14T21:46:25.037Z,16.30
2017-08-14T21:48:52.585Z,16.20
2017-08-14T21:51:20.922Z,16.00
2017-08-14T21:53:48.463Z,16.00
2017-08-14T21:56:16.023Z,16.00
2017-08-14T21:58:43.567Z,16.00
2017-08-14T22:01:12.147Z,16.00
2017-08-14T22:03:40.461Z,15.90
2017-08-14T22:06:08.012Z,15.80
2017-08-14T22:08:35.583Z,15.80
2017-08-14T22:11:03.124Z,15.70
2017-08-14T22:13:30.692Z,15.60
2017-08-14T22:15:59.003Z,15.50
2017-08-14T22:18:26.555Z,15.50
2017-08-14T22:20:54.093Z,15.50
2017-08-14T22:23:22.405Z,15.50
2017-08-14T22:25:50.176Z,15.50
2017-08-14T22:28:17.872Z,15.50
2017-08-14T22:30:46.406Z,15.40
2017-08-14T22:33:13.994Z,15.30
2017-08-14T22:35:44.335Z,15.30
2017-08-14T22:38:11.897Z,15.20
2017-08-14T22:40:39.453Z,15.10
2017-08-14T22:43:07.031Z,15.10
2017-08-14T22:45:37.653Z,15.10
2017-08-14T22:48:05.255Z,15.00
2017-08-14T22:50:32.968Z,15.00
2017-08-14T22:53:05.550Z,15.00
2017-08-14T22:55:34.654Z,15.10
2017-08-14T22:58:02.901Z,15.10
2017-08-14T23:00:31.722Z,15.10
2017-08-14T23:03:01.612Z,15.10
2017-08-14T23:05:31.836Z,15.10
2017-08-14T23:08:02.787Z,15.10
2017-08-14T23:10:30.798Z,15.00
2017-08-14T23:12:58.616Z,15.00
2017-08-14T23:15:26.183Z,14.80
2017-08-14T23:17:53.725Z,14.80
2017-08-14T23:20:21.286Z,14.80
2017-08-14T23:22:48.887Z,14.80
2017-08-14T23:25:16.430Z,14.70
2017-08-14T23:27:43.978Z,14.70
2017-08-14T23:30:11.529Z,14.70
2017-08-14T23:32:39.101Z,14.60
2017-08-14T23:35:06.660Z,14.60
2017-08-14T23:37:34.212Z,14.50
2017-08-14T23:40:02.530Z,14.50
2017-08-14T23:42:30.073Z,14.40
2017-08-14T23:44:57.605Z,14.40
2017-08-14T23:47:25.951Z,14.40
2017-08-14T23:49:53.485Z,14.40
2017-08-14T23:52:23.119Z,14.40
2017-08-14T23:54:50.743Z,14.40
2017-08-14T23:57:18.310Z,14.40
2017-08-14T23:59:45.912Z,14.30
